Time;durP1;ratioP1;P1;durP2;ratioP2;P2;SDS_P1;SDS_P2;PMS_P1;PMS_P2;Temp;Humidity;BMP_temperature;BMP_pressure;BME280_temperature;BME280_humidity;BME280_pressure;Samples;Min_cycle;Max_cycle;Signal;HPM_P1;HPM_P2
2023/09/23 00:01:20;;;;;;;1.45;1.30;;;;;;;20.00;nan;61314.91;5053847;28;20203;-66
2023/09/23 00:03:46;;;;;;;2.97;1.98;;;;;;;20.20;nan;61387.34;5053534;28;20175;-64
2023/09/23 00:06:12;;;;;;;2.95;1.30;;;;;;;20.01;nan;61384.06;5056145;28;20664;-66
2023/09/23 00:08:39;;;;;;;3.60;2.38;;;;;;;20.13;nan;61392.41;5053291;28;20209;-66
2023/09/23 00:11:04;;;;;;;3.40;2.40;;;;;;;20.27;nan;61405.63;5053413;28;20160;-65
2023/09/23 00:13:30;;;;;;;1.42;1.33;;;;;;;20.24;nan;61269.94;5054173;28;20178;-66
2023/09/23 00:15:56;;;;;;;1.88;1.30;;;;;;;20.19;nan;61100.88;5053904;28;20167;-63
2023/09/23 00:18:21;;;;;;;1.50;1.40;;;;;;;20.07;nan;61092.00;5053567;28;20187;-63
2023/09/23 00:20:47;;;;;;;1.70;1.42;;;;;;;20.04;nan;61031.56;5053087;28;20282;-65
2023/09/23 00:23:13;;;;;;;2.20;1.73;;;;;;;20.01;nan;61090.44;5053666;28;20213;-66
2023/09/23 00:25:39;;;;;;;1.77;1.30;;;;;;;19.93;nan;60842.91;5053336;28;20199;-65
2023/09/23 00:28:10;;;;;;;1.58;1.30;;;;;;;19.94;nan;60733.09;5053534;28;20210;-63
2023/09/23 00:30:39;;;;;;;2.00;1.20;;;;;;;19.73;nan;60546.34;5053126;28;20329;-64
2023/09/23 00:33:05;;;;;;;2.47;1.67;;;;;;;19.85;nan;60564.91;5053442;28;20685;-64
2023/09/23 00:35:34;;;;;;;4.00;1.85;;;;;;;19.79;nan;60289.22;5053052;28;20265;-65
2023/09/23 00:38:00;;;;;;;2.20;1.65;;;;;;;19.66;nan;60206.84;5052981;28;20219;-65
2023/09/23 00:40:37;;;;;;;1.50;1.40;;;;;;;19.83;nan;60226.28;5053333;28;20217;-65
2023/09/23 00:43:11;;;;;;;1.58;1.38;;;;;;;19.88;nan;60347.94;5053170;28;20253;-66
2023/09/23 00:45:44;;;;;;;1.40;1.30;;;;;;;19.68;nan;60279.03;5051242;28;20529;-65
2023/09/23 00:48:10;;;;;;;1.77;1.27;;;;;;;19.59;nan;60289.78;5032793;28;20163;-65
2023/09/23 00:50:36;;;;;;;2.10;1.52;;;;;;;19.55;nan;60329.94;5032564;28;20221;-63
2023/09/23 00:53:04;;;;;;;1.92;1.42;;;;;;;19.84;nan;60587.13;5032476;28;20251;-63
2023/09/23 00:55:30;;;;;;;1.55;1.30;;;;;;;19.65;nan;60317.19;5032148;28;20229;-66
2023/09/23 00:58:00;;;;;;;2.33;1.70;;;;;;;19.70;nan;60307.16;5032578;28;20151;-63
2023/09/23 01:00:31;;;;;;;1.27;1.15;;;;;;;19.74;nan;60312.19;5031955;28;20195;-66
2023/09/23 01:02:59;;;;;;;1.80;1.13;;;;;;;19.47;nan;60123.63;5031914;28;20627;-66
2023/09/23 01:05:29;;;;;;;2.55;1.50;;;;;;;19.45;nan;59948.41;5033979;28;20180;-67
2023/09/23 01:07:56;;;;;;;2.03;1.83;;;;;;;19.42;nan;59592.88;5031232;28;20270;-63
2023/09/23 01:10:21;;;;;;;1.67;1.50;;;;;;;19.55;nan;59270.47;5045264;28;20194;-66
2023/09/23 01:12:47;;;;;;;1.35;1.25;;;;;;;19.66;nan;59489.19;5037024;28;20312;-64
2023/09/23 01:15:13;;;;;;;1.60;1.50;;;;;;;19.42;nan;59746.19;5032384;28;20561;-66
2023/09/23 01:17:39;;;;;;;2.88;1.55;;;;;;;19.48;nan;59909.72;5052404;28;20673;-67
2023/09/23 01:20:09;;;;;;;2.20;1.60;;;;;;;19.56;nan;60022.19;5051205;28;20171;-64
2023/09/23 01:22:34;;;;;;;1.20;1.10;;;;;;;19.41;nan;60076.06;5052363;28;20173;-66
2023/09/23 01:25:00;;;;;;;1.95;1.60;;;;;;;19.45;nan;60134.91;5052306;28;20197;-65
2023/09/23 01:27:25;;;;;;;1.65;1.40;;;;;;;19.22;nan;60171.53;5052183;28;20163;-65
2023/09/23 01:29:53;;;;;;;1.95;1.45;;;;;;;19.34;nan;60045.53;5051855;28;20167;-67
2023/09/23 01:32:28;;;;;;;4.95;1.98;;;;;;;19.33;nan;59982.28;5052000;28;20150;-63
2023/09/23 01:34:54;;;;;;;1.65;1.55;;;;;;;19.35;nan;59846.69;5052198;28;20170;-67
2023/09/23 01:37:21;;;;;;;4.93;1.98;;;;;;;19.45;nan;60300.66;5051908;28;20555;-66
2023/09/23 01:39:47;;;;;;;1.42;1.20;;;;;;;19.30;nan;60191.31;5052015;28;20255;-65
2023/09/23 01:42:13;;;;;;;2.30;1.58;;;;;;;19.24;nan;60094.00;5051904;28;20260;-66
2023/09/23 01:44:38;;;;;;;1.25;1.15;;;;;;;19.23;nan;59810.72;5031126;28;20183;-66
2023/09/23 01:47:04;;;;;;;2.33;1.65;;;;;;;19.17;nan;59462.38;5037305;28;20626;-65
2023/09/23 01:49:31;;;;;;;1.40;1.30;;;;;;;18.90;nan;59130.06;5040564;28;20733;-64
2023/09/23 01:51:57;;;;;;;2.90;1.70;;;;;;;19.09;nan;58948.41;5038610;28;20175;-63
2023/09/23 01:54:22;;;;;;;1.42;1.20;;;;;;;19.07;nan;59132.53;5039604;28;20177;-62
2023/09/23 01:56:48;;;;;;;1.23;1.13;;;;;;;19.17;nan;59524.50;5041061;28;20237;-63
2023/09/23 01:59:13;;;;;;;1.52;1.23;;;;;;;19.05;nan;59402.09;5031618;28;20544;-63
2023/09/23 02:01:40;;;;;;;2.72;1.60;;;;;;;19.03;nan;59195.44;5033075;28;20210;-64
2023/09/23 02:04:08;;;;;;;2.65;1.50;;;;;;;16.47;nan;58548.66;5044306;28;20262;-64
2023/09/23 02:06:38;;;;;;;1.85;1.33;;;;;;;18.97;nan;58103.44;5030442;28;20183;-63
2023/09/23 02:09:04;;;;;;;1.38;1.27;;;;;;;18.90;nan;57829.00;5044802;28;20191;-63
2023/09/23 02:11:30;;;;;;;1.50;1.30;;;;;;;18.91;nan;57734.38;5035553;28;20653;-64
2023/09/23 02:13:55;;;;;;;1.40;1.20;;;;;;;19.08;nan;57967.28;5032024;28;20167;-65
2023/09/23 02:16:21;;;;;;;1.55;1.23;;;;;;;18.84;nan;58311.31;5033358;28;20191;-63
2023/09/23 02:18:51;;;;;;;2.05;1.58;;;;;;;19.00;nan;58292.38;5035713;28;20190;-65
2023/09/23 02:21:18;;;;;;;1.65;1.45;;;;;;;18.95;nan;58077.47;5046700;28;20197;-65
2023/09/23 02:23:45;;;;;;;2.25;1.65;;;;;;;18.84;nan;57942.06;5046062;28;20198;-65
2023/09/23 02:26:11;;;;;;;1.50;1.30;;;;;;;19.17;nan;58773.91;5039226;28;20229;-66
2023/09/23 02:28:38;;;;;;;1.98;1.52;;;;;;;18.92;nan;58870.94;5052852;28;20186;-62
2023/09/23 02:31:04;;;;;;;4.43;1.65;;;;;;;18.79;nan;58572.84;5035228;28;20657;-64
2023/09/23 02:33:30;;;;;;;2.03;1.10;;;;;;;18.79;nan;58295.59;5034792;28;20175;-64
2023/09/23 02:35:56;;;;;;;2.42;1.30;;;;;;;18.75;nan;58413.34;5052311;28;20545;-65
2023/09/23 02:38:22;;;;;;;2.03;1.50;;;;;;;16.29;nan;58241.22;5034508;28;20657;-64
2023/09/23 02:40:50;;;;;;;1.42;1.10;;;;;;;18.76;nan;58184.28;5036014;28;20207;-65
2023/09/23 02:43:19;;;;;;;1.80;1.35;;;;;;;18.67;nan;57990.50;5034388;28;20179;-65
2023/09/23 02:45:48;;;;;;;2.13;1.63;;;;;;;18.60;nan;57564.25;5036341;28;20180;-65
2023/09/23 02:48:14;;;;;;;2.40;1.92;;;;;;;18.49;nan;57579.41;5049640;28;20243;-63
2023/09/23 02:50:40;;;;;;;1.88;1.42;;;;;;;18.64;nan;56935.81;5033429;28;20541;-65
2023/09/23 02:53:07;;;;;;;1.45;1.35;;;;;;;18.26;nan;53679.16;5047846;28;20220;-64
2023/09/23 02:55:32;;;;;;;2.10;1.83;;;;;;;18.44;nan;54224.28;5035969;28;20768;-63
2023/09/23 02:57:58;;;;;;;1.13;0.90;;;;;;;18.44;nan;53999.69;5051935;28;20187;-65
2023/09/23 03:00:29;;;;;;;2.08;1.58;;;;;;;18.34;nan;53091.09;5033486;28;20674;-64
2023/09/23 03:02:56;;;;;;;1.67;1.40;;;;;;;18.25;nan;52888.69;5033581;28;20645;-64
2023/09/23 03:05:30;;;;;;;2.08;1.70;;;;;;;18.27;nan;51849.13;5033963;28;20697;-64
2023/09/23 03:07:59;;;;;;;1.55;1.42;;;;;;;18.16;nan;47656.19;5051746;28;20186;-62
2023/09/23 03:10:34;;;;;;;9.23;1.58;;;;;;;18.27;nan;47500.81;5033910;28;20219;-65
2023/09/23 03:13:05;;;;;;;1.42;1.33;;;;;;;18.20;nan;45427.19;5033556;28;20261;-64
2023/09/23 03:15:36;;;;;;;1.40;1.30;;;;;;;;;;5032390;28;20476;-64
2023/09/23 03:18:03;;;;;;;2.30;1.63;;;;;;;18.27;nan;40355.97;5034049;28;20206;-63
2023/09/23 03:20:28;;;;;;;1.33;1.23;;;;;;;18.34;nan;41469.91;5050096;28;20198;-63
2023/09/23 03:22:54;;;;;;;2.05;1.40;;;;;;;18.06;nan;40062.50;5035031;28;20215;-64
2023/09/23 03:25:20;;;;;;;1.70;1.35;;;;;;;18.12;nan;38520.81;5036453;28;20551;-65
2023/09/23 03:27:50;;;;;;;1.70;1.17;;;;;;;18.05;nan;38390.09;5036011;28;20187;-64
2023/09/23 03:30:17;;;;;;;1.63;1.50;;;;;;;18.23;nan;40036.78;5045790;28;20194;-64
2023/09/23 03:32:43;;;;;;;1.33;1.23;;;;;;;18.15;nan;37364.97;5040405;28;20190;-63
2023/09/23 03:35:13;;;;;;;1.80;1.70;;;;;;;18.23;nan;36559.53;5033624;28;20664;-65
2023/09/23 03:37:39;;;;;;;2.38;1.50;;;;;;;18.15;nan;35239.53;5040846;28;20190;-65
2023/09/23 03:40:07;;;;;;;1.33;1.17;;;;;;;18.03;nan;33918.38;5048933;28;20612;-64
2023/09/23 03:42:33;;;;;;;1.85;1.40;;;;;;;18.07;nan;33264.66;5038160;28;20176;-63
2023/09/23 03:44:58;;;;;;;1.95;1.48;;;;;;;18.14;nan;32612.94;5033572;28;20201;-65
2023/09/23 03:47:25;;;;;;;3.58;1.58;;;;;;;18.10;nan;32282.22;5032780;28;20175;-65
2023/09/23 03:49:51;;;;;;;1.23;1.13;;;;;;;17.87;nan;30955.69;5035050;28;20605;-66
2023/09/23 03:52:16;;;;;;;1.60;1.20;;;;;;;17.80;nan;30623.84;5045570;28;20214;-65
2023/09/23 03:54:42;;;;;;;1.70;1.40;;;;;;;17.83;nan;30625.38;5034697;28;20214;-62
2023/09/23 03:57:07;;;;;;;1.50;1.40;;;;;;;17.80;nan;30951.31;5038343;28;20647;-62
2023/09/23 03:59:35;;;;;;;1.88;1.48;;;;;;;18.03;nan;30637.81;5039451;28;20179;-65
2023/09/23 04:02:00;;;;;;;1.20;1.10;;;;;;;17.85;nan;32266.03;5045113;28;20748;-63
2023/09/23 04:04:26;;;;;;;2.33;1.65;;;;;;;17.83;nan;32265.06;5036196;28;20266;-63
2023/09/23 04:06:51;;;;;;;1.23;1.02;;;;;;;17.87;nan;32595.31;5050460;28;20179;-64
2023/09/23 04:09:16;;;;;;;1.67;1.45;;;;;;;18.23;nan;35573.56;5032621;28;20228;-65
2023/09/23 04:11:42;;;;;;;1.60;1.50;;;;;;;17.99;nan;35885.81;5031560;28;20210;-63
2023/09/23 04:14:07;;;;;;;1.15;1.10;;;;;;;17.93;nan;35552.88;5037586;28;20183;-65
2023/09/23 04:16:33;;;;;;;2.05;1.50;;;;;;;18.16;nan;35569.00;5045157;28;20332;-63
2023/09/23 04:18:59;;;;;;;2.03;1.77;;;;;;;18.02;nan;37637.81;5032586;28;20648;-63
2023/09/23 04:21:25;;;;;;;1.30;1.20;;;;;;;18.32;nan;40910.38;5039983;28;20717;-63
2023/09/23 04:23:52;;;;;;;2.25;1.52;;;;;;;18.35;nan;43880.91;5043384;28;20175;-65
2023/09/23 04:26:21;;;;;;;1.85;1.70;;;;;;;18.20;nan;41381.19;5032955;28;20186;-62
2023/09/23 04:28:53;;;;;;;1.55;1.08;;;;;;;18.32;nan;44138.28;5046712;28;20182;-63
2023/09/23 04:31:19;;;;;;;1.58;1.30;;;;;;;18.31;nan;46906.91;5052644;28;20574;-65
2023/09/23 04:33:47;;;;;;;1.42;1.27;;;;;;;18.34;nan;47116.06;5049734;28;20198;-65
2023/09/23 04:36:12;;;;;;;2.17;1.75;;;;;;;18.57;nan;48865.50;5033942;28;20201;-65
2023/09/23 04:38:38;;;;;;;1.27;1.17;;;;;;;18.43;nan;50231.69;5048196;28;20266;-63
2023/09/23 04:41:03;;;;;;;2.05;1.85;;;;;;;18.74;nan;50743.44;5033211;28;20293;-64
2023/09/23 04:43:30;;;;;;;2.65;1.38;;;;;;;;;;5048348;28;20174;-64
2023/09/23 04:45:56;;;;;;;3.45;2.03;;;;;;;18.80;nan;52015.84;5031057;28;20187;-65
2023/09/23 04:48:24;;;;;;;2.33;1.63;;;;;;;18.59;nan;51360.69;5046840;28;20198;-63
2023/09/23 04:50:52;;;;;;;1.75;1.65;;;;;;;18.89;nan;52293.59;5034680;28;20182;-66
2023/09/23 04:53:18;;;;;;;3.10;1.50;;;;;;;19.01;nan;52314.69;5035168;28;20204;-65
2023/09/23 04:55:45;;;;;;;1.85;1.40;;;;;;;19.10;nan;52566.78;5047171;28;20246;-64
2023/09/23 04:58:12;;;;;;;2.58;1.98;;;;;;;19.09;nan;53054.00;5026829;28;20245;-63
2023/09/23 05:00:38;;;;;;;2.10;1.42;;;;;;;19.05;nan;54483.94;5031711;28;20297;-64
2023/09/23 05:03:05;;;;;;;3.05;1.75;;;;;;;19.40;nan;55830.69;5030883;28;20187;-64
2023/09/23 05:05:31;;;;;;;2.17;1.67;;;;;;;19.45;nan;55995.25;5030506;28;20207;-64
2023/09/23 05:07:59;;;;;;;2.47;1.58;;;;;;;19.45;nan;56945.31;5030797;28;20187;-64
2023/09/23 05:10:26;;;;;;;1.55;1.45;;;;;;;19.51;nan;57065.00;5029667;28;20212;-63
2023/09/23 05:12:55;;;;;;;2.15;1.65;;;;;;;19.80;nan;57302.81;5039769;28;20699;-68
2023/09/23 05:15:23;;;;;;;2.90;1.77;;;;;;;19.92;nan;57913.91;5040857;28;20570;-66
2023/09/23 05:17:49;;;;;;;2.75;1.50;;;;;;;20.00;nan;58046.84;5031951;28;20243;-65
2023/09/23 05:20:16;;;;;;;2.85;1.73;;;;;;;19.95;nan;58481.91;5047817;28;20206;-65
2023/09/23 05:22:42;;;;;;;1.67;1.58;;;;;;;20.11;nan;58659.91;5051934;28;20166;-65
2023/09/23 05:25:11;;;;;;;2.92;2.00;;;;;;;20.14;nan;59026.03;5051762;28;20186;-66
2023/09/23 05:27:37;;;;;;;2.50;2.03;;;;;;;20.23;nan;59470.88;5051402;28;20237;-64
2023/09/23 05:30:05;;;;;;;2.30;1.83;;;;;;;20.15;nan;59543.03;5050935;28;20178;-65
2023/09/23 05:32:30;;;;;;;1.75;1.65;;;;;;;20.23;nan;59660.16;5051743;28;20155;-64
2023/09/23 05:35:00;;;;;;;2.35;1.80;;;;;;;20.45;nan;59782.97;5051762;28;20163;-65
2023/09/23 05:37:26;;;;;;;1.90;1.55;;;;;;;20.56;nan;59968.38;5050806;28;20182;-63
2023/09/23 05:39:52;;;;;;;2.80;1.80;;;;;;;20.52;nan;60166.34;5042946;28;20176;-63
2023/09/23 05:42:23;;;;;;;3.08;1.50;;;;;;;20.86;nan;60466.25;5039205;28;20309;-64
2023/09/23 05:44:48;;;;;;;1.65;1.48;;;;;;;20.76;nan;60465.50;5041637;28;20170;-64
2023/09/23 05:47:13;;;;;;;1.30;1.20;;;;;;;20.86;nan;60632.41;5041340;28;20175;-64
2023/09/23 05:49:39;;;;;;;3.88;1.80;;;;;;;20.94;nan;60630.97;5039557;28;20642;-64
2023/09/23 05:52:04;;;;;;;2.35;1.50;;;;;;;21.34;nan;60805.00;5041774;28;20186;-64
2023/09/23 05:54:31;;;;;;;1.77;1.65;;;;;;;21.50;nan;60882.13;5038068;28;20172;-63
2023/09/23 05:56:56;;;;;;;1.67;1.27;;;;;;;21.73;nan;61009.31;5038446;28;20214;-64
2023/09/23 05:59:22;;;;;;;1.38;1.27;;;;;;;21.57;nan;60980.97;5041329;28;20172;-64
2023/09/23 06:01:47;;;;;;;2.58;1.92;;;;;;;21.76;nan;61113.53;5038178;28;20241;-65
2023/09/23 06:04:13;;;;;;;1.40;1.23;;;;;;;21.86;nan;61190.34;5030263;28;20195;-67
2023/09/23 06:06:38;;;;;;;1.40;1.30;;;;;;;22.16;nan;61374.50;5029111;28;20171;-65
2023/09/23 06:09:07;;;;;;;1.50;1.40;;;;;;;22.15;nan;61513.34;5029260;28;20183;-64
2023/09/23 06:11:37;;;;;;;2.45;1.33;;;;;;;22.31;nan;61396.06;5042521;28;20171;-65
2023/09/23 06:14:03;;;;;;;1.45;1.23;;;;;;;22.46;nan;61491.09;5032543;28;20194;-65
2023/09/23 06:16:28;;;;;;;4.03;1.55;;;;;;;22.20;nan;61542.97;5032064;28;20554;-64
2023/09/23 06:18:54;;;;;;;1.48;1.38;;;;;;;22.89;nan;61591.22;5031605;28;20188;-66
2023/09/23 06:21:19;;;;;;;1.30;1.17;;;;;;;22.89;nan;61597.00;5040797;28;20190;-66
2023/09/23 06:23:45;;;;;;;1.30;1.20;;;;;;;23.00;nan;61853.88;5037333;28;20187;-64
2023/09/23 06:26:10;;;;;;;2.30;1.67;;;;;;;23.16;nan;61790.66;5028803;28;20181;-65
2023/09/23 06:28:36;;;;;;;1.23;1.13;;;;;;;23.15;nan;61674.81;5029782;28;20175;-65
2023/09/23 06:31:02;;;;;;;1.92;1.58;;;;;;;21.92;nan;61621.13;5028340;28;20636;-64
2023/09/23 06:33:29;;;;;;;2.45;1.50;;;;;;;23.50;nan;61773.88;5028921;28;20654;-65
2023/09/23 06:35:54;;;;;;;1.60;1.25;;;;;;;23.33;nan;61708.81;5025783;28;20194;-64
2023/09/23 06:38:20;;;;;;;1.50;1.40;;;;;;;23.66;nan;62029.47;5029101;28;20180;-66
2023/09/23 06:40:45;;;;;;;1.60;1.40;;;;;;;23.57;nan;61850.22;5031509;28;20203;-66
2023/09/23 06:43:12;;;;;;;1.67;1.55;;;;;;;23.84;nan;61932.50;5047553;28;20177;-66
2023/09/23 06:45:37;;;;;;;1.23;1.13;;;;;;;24.19;nan;62040.16;5028483;28;20610;-68
2023/09/23 06:48:03;;;;;;;1.30;1.20;;;;;;;23.96;nan;61930.47;5031075;28;20197;-65
2023/09/23 06:50:29;;;;;;;1.42;1.33;;;;;;;24.19;nan;61959.22;5045884;28;20525;-64
2023/09/23 06:52:54;;;;;;;1.80;1.30;;;;;;;23.89;nan;62026.91;5030407;28;20618;-64
2023/09/23 06:55:20;;;;;;;2.90;1.87;;;;;;;23.60;nan;61813.94;5000037;28;1107667;-64
2023/09/23 06:57:45;;;;;;;2.10;1.73;;;;;;;23.67;nan;61887.69;5051031;28;20194;-66
2023/09/23 07:00:12;;;;;;;2.47;1.48;;;;;;;23.72;nan;62018.59;5050971;28;20298;-67
2023/09/23 07:02:37;;;;;;;1.27;1.17;;;;;;;23.70;nan;61916.59;5050767;28;20270;-65
2023/09/23 07:05:03;;;;;;;1.50;1.40;;;;;;;23.98;nan;61942.59;5052805;28;20249;-65
2023/09/23 07:07:28;;;;;;;1.40;1.17;;;;;;;24.25;nan;62119.00;5054799;28;20162;-64
2023/09/23 07:09:53;;;;;;;4.82;1.67;;;;;;;24.36;nan;62202.63;5047255;28;20642;-64
2023/09/23 07:12:19;;;;;;;1.40;1.27;;;;;;;24.04;nan;61950.00;5042290;28;20190;-64
2023/09/23 07:14:45;;;;;;;0.90;0.90;;;;;;;24.27;nan;62111.41;5042456;28;20190;-64
2023/09/23 07:17:10;;;;;;;1.58;1.48;;;;;;;24.56;nan;62047.72;5034512;28;20182;-64
2023/09/23 07:19:36;;;;;;;1.30;1.13;;;;;;;24.24;nan;61995.09;5049566;28;20185;-65
2023/09/23 07:22:02;;;;;;;1.90;1.50;;;;;;;24.22;nan;61985.56;5054142;28;20293;-63
2023/09/23 07:24:29;;;;;;;0.98;0.93;;;;;;;24.43;nan;62134.25;5054143;28;20175;-63
2023/09/23 07:26:56;;;;;;;2.28;1.63;;;;;;;24.44;nan;62028.28;5054140;28;20166;-63
2023/09/23 07:29:22;;;;;;;5.18;1.85;;;;;;;24.57;nan;62064.53;5052597;28;20521;-65
2023/09/23 07:31:47;;;;;;;1.75;1.63;;;;;;;24.94;nan;62111.31;5054127;28;20236;-64
2023/09/23 07:34:13;;;;;;;1.30;1.20;;;;;;;25.33;nan;62133.66;5053726;28;20214;-63
2023/09/23 07:36:38;;;;;;;1.23;1.13;;;;;;;25.53;nan;62187.81;5054329;28;20174;-64
2023/09/23 07:39:04;;;;;;;2.45;1.20;;;;;;;25.50;nan;62381.25;5054026;28;20545;-63
2023/09/23 07:41:29;;;;;;;2.10;1.73;;;;;;;25.73;nan;62354.63;5053718;28;20241;-64
2023/09/23 07:43:54;;;;;;;2.35;1.88;;;;;;;25.92;nan;62363.22;5053707;28;20274;-63
2023/09/23 07:46:20;;;;;;;1.10;1.00;;;;;;;26.14;nan;62468.41;5053667;28;20262;-64
2023/09/23 07:48:46;;;;;;;1.80;1.65;;;;;;;26.14;nan;62460.56;5053680;28;20171;-65
2023/09/23 07:51:12;;;;;;;2.72;1.70;;;;;;;26.34;nan;62557.41;5046850;28;20186;-62
2023/09/23 07:53:37;;;;;;;2.08;1.50;;;;;;;26.48;nan;62627.34;5042711;28;20199;-65
2023/09/23 07:56:03;;;;;;;3.33;1.50;;;;;;;26.52;nan;62589.97;5042454;28;20308;-66
2023/09/23 07:58:29;;;;;;;5.03;2.40;;;;;;;26.74;nan;62581.63;5053090;28;20170;-63
2023/09/23 08:00:54;;;;;;;1.70;1.55;;;;;;;26.77;nan;62545.72;5053142;28;20278;-63
2023/09/23 08:03:19;;;;;;;2.22;1.83;;;;;;;26.84;nan;62498.09;5053583;28;20178;-62
2023/09/23 08:05:45;;;;;;;1.80;1.65;;;;;;;26.95;nan;62552.66;5053035;28;20807;-62
2023/09/23 08:08:10;;;;;;;4.55;1.55;;;;;;;26.91;nan;62531.78;5052583;28;20162;-65
2023/09/23 08:10:36;;;;;;;3.63;1.88;;;;;;;27.06;nan;62514.81;5053018;28;20223;-62
2023/09/23 08:13:02;;;;;;;3.35;2.22;;;;;;;27.35;nan;62657.66;5053434;28;20165;-65
2023/09/23 08:15:31;;;;;;;2.72;1.90;;;;;;;27.52;nan;62682.41;5052270;28;20176;-62
2023/09/23 08:17:56;;;;;;;1.38;1.15;;;;;;;27.45;nan;62740.03;5052625;28;20270;-63
2023/09/23 08:20:23;;;;;;;1.52;1.42;;;;;;;27.70;nan;62653.13;5052192;28;20253;-64
2023/09/23 08:22:49;;;;;;;1.83;1.60;;;;;;;27.65;nan;62747.78;5052992;28;20172;-64
2023/09/23 08:25:16;;;;;;;1.42;1.10;;;;;;;27.89;nan;62761.59;5053015;28;20170;-63
2023/09/23 08:27:42;;;;;;;1.67;1.42;;;;;;;28.01;nan;62701.81;5053019;28;20562;-67
2023/09/23 08:30:11;;;;;;;1.92;1.67;;;;;;;28.24;nan;62764.41;5052882;28;20205;-65
2023/09/23 08:32:39;;;;;;;1.83;1.33;;;;;;;28.14;nan;62765.50;5052829;28;20208;-63
2023/09/23 08:35:07;;;;;;;1.95;1.40;;;;;;;28.26;nan;62734.56;5055031;28;20171;-68
2023/09/23 08:37:33;;;;;;;2.20;1.50;;;;;;;28.41;nan;62872.72;5053238;28;20262;-65
2023/09/23 08:39:58;;;;;;;1.33;1.23;;;;;;;28.47;nan;62769.75;5052953;28;20246;-66
2023/09/23 08:42:24;;;;;;;0.90;0.90;;;;;;;28.70;nan;62819.22;5052789;28;20594;-65
2023/09/23 08:44:51;;;;;;;1.60;1.48;;;;;;;28.80;nan;62811.72;5052515;28;20257;-65
2023/09/23 08:47:20;;;;;;;1.85;1.50;;;;;;;28.66;nan;62798.84;5052630;28;20178;-64
2023/09/23 08:49:49;;;;;;;1.15;1.05;;;;;;;28.79;nan;62853.25;5052246;28;20169;-66
2023/09/23 08:52:18;;;;;;;1.20;1.10;;;;;;;28.79;nan;62829.56;5052271;28;20286;-65
2023/09/23 08:54:49;;;;;;;4.85;2.03;;;;;;;28.58;nan;62849.59;5052064;28;20158;-63
2023/09/23 08:57:16;;;;;;;2.42;1.90;;;;;;;28.70;nan;62848.16;5051758;28;20661;-65
2023/09/23 08:59:42;;;;;;;5.70;2.10;;;;;;;28.64;nan;62796.56;5052219;28;20166;-64
2023/09/23 09:02:07;;;;;;;1.92;1.70;;;;;;;28.75;nan;62938.13;5052302;28;20668;-64
2023/09/23 09:04:33;;;;;;;2.90;2.13;;;;;;;28.59;nan;62830.28;5050633;28;20181;-64
2023/09/23 09:06:58;;;;;;;1.48;1.38;;;;;;;28.83;nan;62841.47;5051589;28;20549;-64
2023/09/23 09:09:25;;;;;;;3.17;2.05;;;;;;;29.06;nan;62933.13;5052243;28;20198;-64
2023/09/23 09:11:53;;;;;;;1.67;1.40;;;;;;;29.21;nan;62931.91;5052173;28;20155;-64
2023/09/23 09:14:22;;;;;;;1.40;1.27;;;;;;;29.24;nan;62990.66;5051723;28;20189;-64
2023/09/23 09:16:48;;;;;;;2.97;1.80;;;;;;;29.37;nan;62956.16;5052304;28;20174;-65
2023/09/23 09:19:14;;;;;;;3.78;2.17;;;;;;;29.33;nan;63114.84;5051757;28;20185;-66
2023/09/23 09:21:41;;;;;;;6.13;2.92;;;;;;;29.64;nan;63039.31;5051550;28;20696;-65
2023/09/23 09:24:07;;;;;;;3.25;2.00;;;;;;;29.73;nan;62931.06;5052018;28;20238;-65
2023/09/23 09:26:33;;;;;;;1.48;1.17;;;;;;;29.10;nan;62974.56;5051636;28;20178;-67
2023/09/23 09:28:58;;;;;;;11.55;1.67;;;;;;;29.47;nan;63001.31;5050417;28;20558;-65
2023/09/23 09:31:35;;;;;;;1.55;1.27;;;;;;;29.30;nan;62889.59;5050410;28;20640;-65
2023/09/23 09:34:10;;;;;;;1.83;1.25;;;;;;;29.24;nan;63009.66;5051603;28;20197;-65
2023/09/23 09:36:38;;;;;;;1.52;1.42;;;;;;;29.52;nan;63070.31;5051693;28;20193;-65
2023/09/23 09:39:06;;;;;;;3.45;1.80;;;;;;;29.06;nan;62898.88;5051862;28;20667;-66
2023/09/23 09:41:42;;;;;;;1.88;1.55;;;;;;;29.04;nan;62930.81;5051742;28;20271;-65
2023/09/23 09:44:08;;;;;;;2.47;1.50;;;;;;;29.36;nan;62952.38;5050300;28;20231;-64
2023/09/23 09:46:34;;;;;;;2.15;1.52;;;;;;;;;;5051674;28;20162;-64
2023/09/23 09:49:01;;;;;;;2.35;1.58;;;;;;;29.50;nan;63001.56;5050334;28;20254;-64
2023/09/23 09:51:30;;;;;;;7.60;2.42;;;;;;;29.72;nan;63018.97;5051709;28;20512;-65
2023/09/23 09:53:56;;;;;;;2.30;1.30;;;;;;;29.40;nan;63014.94;5051506;28;20253;-63
2023/09/23 09:56:24;;;;;;;8.27;2.05;;;;;;;29.53;nan;63000.31;5051421;28;20638;-65
2023/09/23 09:58:50;;;;;;;2.10;1.45;;;;;;;29.47;nan;62919.09;5051318;28;20172;-65
2023/09/23 10:01:17;;;;;;;2.00;1.70;;;;;;;29.54;nan;62946.16;5040376;28;20270;-65
2023/09/23 10:03:44;;;;;;;4.80;3.22;;;;;;;29.57;nan;62960.13;5040521;28;20178;-63
2023/09/23 10:06:18;;;;;;;3.42;2.30;;;;;;;29.47;nan;62987.56;5046722;28;20177;-67
2023/09/23 10:08:46;;;;;;;3.28;1.85;;;;;;;29.57;nan;63057.03;5049951;28;20174;-64
2023/09/23 10:11:13;;;;;;;2.83;1.55;;;;;;;29.58;nan;62510.78;5031043;28;20178;-63
2023/09/23 10:13:38;;;;;;;2.53;1.42;;;;;;;29.64;nan;63007.69;5031481;28;20175;-64
2023/09/23 10:16:12;;;;;;;1.70;1.40;;;;;;;30.01;nan;63086.59;5031348;28;20646;-64
2023/09/23 10:18:39;;;;;;;2.75;1.52;;;;;;;30.11;nan;63044.78;5031093;28;20249;-63
2023/09/23 10:21:06;;;;;;;1.73;1.50;;;;;;;30.28;nan;63154.03;5030764;28;20195;-64
2023/09/23 10:23:39;;;;;;;2.03;1.63;;;;;;;30.32;nan;63090.06;5031302;28;20262;-63
2023/09/23 10:26:18;;;;;;;2.60;1.85;;;;;;;30.32;nan;63074.22;5031080;28;20155;-64
2023/09/23 10:29:04;;;;;;;2.80;1.52;;;;;;;30.46;nan;63084.50;5031288;28;20545;-62
2023/09/23 10:31:31;;;;;;;2.22;1.42;;;;;;;30.27;nan;63250.47;5031268;28;20178;-63
2023/09/23 10:33:57;;;;;;;2.63;1.90;;;;;;;30.06;nan;62988.94;5030350;28;20638;-64
2023/09/23 10:36:23;;;;;;;2.58;1.50;;;;;;;30.25;nan;63127.41;5030792;28;20260;-63
2023/09/23 10:38:49;;;;;;;2.83;1.50;;;;;;;30.21;nan;63051.03;5031445;28;20171;-64
2023/09/23 10:41:15;;;;;;;1.83;1.42;;;;;;;30.43;nan;63152.28;5035026;28;20293;-65
2023/09/23 10:43:41;;;;;;;1.67;1.40;;;;;;;30.41;nan;63004.84;5035052;28;20209;-63
2023/09/23 10:46:06;;;;;;;1.63;1.52;;;;;;;30.62;nan;63084.44;5034430;28;20174;-64
2023/09/23 10:48:32;;;;;;;2.65;1.73;;;;;;;30.63;nan;63170.63;5033878;28;20209;-63
2023/09/23 10:51:00;;;;;;;2.03;1.30;;;;;;;30.50;nan;63115.50;5034782;28;20177;-64
2023/09/23 10:53:29;;;;;;;1.58;1.48;;;;;;;30.63;nan;63304.66;5034634;28;20179;-65
2023/09/23 10:55:55;;;;;;;2.05;1.80;;;;;;;30.65;nan;63156.53;5034296;28;20233;-64
2023/09/23 10:58:21;;;;;;;2.08;1.48;;;;;;;30.54;nan;63067.31;5034485;28;20198;-64
2023/09/23 11:00:48;;;;;;;2.50;1.73;;;;;;;30.67;nan;63204.25;5034574;28;20230;-64
2023/09/23 11:03:19;;;;;;;1.80;1.60;;;;;;;30.69;nan;63145.84;5034793;28;20181;-63
2023/09/23 11:05:45;;;;;;;2.00;1.80;;;;;;;31.10;nan;63207.78;5034810;28;20170;-64
2023/09/23 11:08:12;;;;;;;1.60;1.42;;;;;;;31.34;nan;63232.81;5034988;28;20175;-64
2023/09/23 11:10:39;;;;;;;3.30;1.63;;;;;;;31.24;nan;63287.31;5035115;28;20182;-64
2023/09/23 11:13:06;;;;;;;2.63;1.77;;;;;;;31.18;nan;63319.44;5034647;28;20231;-64
2023/09/23 11:15:32;;;;;;;2.13;1.52;;;;;;;30.96;nan;63183.72;5033638;28;20660;-65
2023/09/23 11:17:58;;;;;;;2.30;1.42;;;;;;;31.25;nan;63208.66;5034276;28;20171;-64
2023/09/23 11:20:30;;;;;;;1.40;1.30;;;;;;;31.07;nan;63199.63;5034301;28;20171;-64
2023/09/23 11:23:03;;;;;;;1.80;1.30;;;;;;;30.99;nan;63311.28;5034360;28;20178;-64
2023/09/23 11:25:29;;;;;;;3.10;2.10;;;;;;;31.27;nan;63243.22;5034170;28;20163;-65
2023/09/23 11:27:59;;;;;;;1.85;1.40;;;;;;;31.45;nan;63252.81;5034221;28;20163;-65
2023/09/23 11:30:25;;;;;;;2.97;1.65;;;;;;;31.63;nan;63317.97;5034302;28;20171;-65
2023/09/23 11:32:51;;;;;;;1.75;1.42;;;;;;;31.56;nan;63226.44;5033969;28;20221;-65
2023/09/23 11:35:17;;;;;;;2.17;1.50;;;;;;;31.65;nan;63355.22;5034249;28;20288;-65
2023/09/23 11:37:44;;;;;;;2.05;1.45;;;;;;;31.74;nan;63341.22;5034276;28;20178;-65
2023/09/23 11:40:12;;;;;;;3.83;2.65;;;;;;;31.76;nan;63475.75;5034254;28;20175;-64
2023/09/23 11:42:38;;;;;;;1.83;1.38;;;;;;;32.06;nan;63422.53;5033870;28;20194;-64
2023/09/23 11:45:04;;;;;;;3.88;1.58;;;;;;;32.13;nan;63391.53;5034325;28;20244;-64
2023/09/23 11:47:29;;;;;;;1.77;1.45;;;;;;;31.98;nan;63422.41;5033947;28;20155;-63
2023/09/23 11:49:54;;;;;;;3.13;1.70;;;;;;;31.87;nan;63351.50;5033378;28;20217;-63